La Dole, Switzerland
Current Conditions -  °F | °C
As of 3:50 AM on Thursday 23 Oct 2014 (Local Time) from LSGG Reporting Station
Scattered Clouds Scattered Clouds  
Wind Chill: 41°   Ceiling: Unl
Heat Index: 41°   Visibility: 6mi
Dew Point: 41°   Wind: 2mph
Humidity: 100%   Direction: 290°WNW
Pressure: 30.33"   Gusts: NA
Location:  46.43°N, 6.11°E
Report Text: LSGG 230150Z 29002KT 9999 FEW035 SCT065 05/05 Q1027 NOSIG
Loading
Personal Weather Stations






























Interactive Weather Map
Tropical Storm Tracking
New forecast layout! Learn more

10-Day Weather Forecast

Advertisements
Track Severe Weather on mobile